Strona główna
METAR-TAF:

METAR-TAF

Lotnisko :

Lotnisko Zeltweg

Zeltweg, Austria

Szerokość geograficzna: 47-12N, Długość geograficzna: 014-45E, wysokość: 677 m

Aktualna obserwacja pogody

Raport powstał 2 godziny i 45 minut temu, godzina 23:50 UTC
Wiatr 2 kt od zachodnio-północny zachód
Temperatura -1°C
Wilgotność 80%
Ciśnienie 1028 hPa
bezchmurnie

METAR: LOXZ 052350Z 29002KT 10KM SKC M01/M04 Q1028

czas: 04:35 (02:35 UTC)

Prognoza

Raport powstał 15 godziny i 20 minut temu, godzina 11:15 UTC
Prognoza ważna od 05 godzina 12 UTC do 05 godzina 21 UTC
Wiatr 3 kt z kierunków zmiennych
Widzialność 10 km lub więcej
bezchmurnie
Przejściowo
od 05 godzina 12 UTC do 05 godzina 17 UTC
Wiatr 8 kt od wschodnio-południowy wschód

TAF: LOXZ 051115Z 0512/0521 VRB03KT 9999 SKC TEMPO 0512/0517 12008KT

Obserwacja i prognoza pogody dla ponad 4000 lotnisk (raport METAR i TAF).

Dostępne stacje oznaczono żółtymi i czerwonymi punktami na mapie.

Najedź kursorem aby zobaczyć nazwę stacji.

Kliknij aby zobaczyć obserwacje i prognozy pogody.

Aby zmienić mapę: kliknij na zielony przycisk z czarnym krzyżykiem, aby powiększyć; na zielony przycisk z myślnikiem, aby pomniejszyć; na zielone strzałki, aby przejść do map sąsiednich.


METAR-TAF: